sensor_id;sensor_type;location;lat;lon;timestamp;temperature;humidity
18073;DHT22;9161;47.348;9.648;2024-03-22T00:03:56;10.00;99.90
18073;DHT22;9161;47.348;9.648;2024-03-22T00:08:57;9.90;99.90
18073;DHT22;9161;47.348;9.648;2024-03-22T00:13:58;9.60;99.90
18073;DHT22;9161;47.348;9.648;2024-03-22T00:19:01;9.60;99.90
18073;DHT22;9161;47.348;9.648;2024-03-22T00:24:02;9.60;99.90
18073;DHT22;9161;47.348;9.648;2024-03-22T00:29:03;9.50;99.90
18073;DHT22;9161;47.348;9.648;2024-03-22T00:34:06;9.60;99.90
18073;DHT22;9161;47.348;9.648;2024-03-22T00:39:08;9.70;99.90
18073;DHT22;9161;47.348;9.648;2024-03-22T00:44:09;9.50;99.90
18073;DHT22;9161;47.348;9.648;2024-03-22T00:49:12;9.30;99.90
18073;DHT22;9161;47.348;9.648;2024-03-22T00:54:14;9.50;99.90
18073;DHT22;9161;47.348;9.648;2024-03-22T00:59:15;9.20;99.90
18073;DHT22;9161;47.348;9.648;2024-03-22T01:04:18;8.90;99.90
18073;DHT22;9161;47.348;9.648;2024-03-22T01:09:19;8.70;99.90
18073;DHT22;9161;47.348;9.648;2024-03-22T01:14:20;8.50;99.90
18073;DHT22;9161;47.348;9.648;2024-03-22T01:19:23;8.10;99.90
18073;DHT22;9161;47.348;9.648;2024-03-22T01:24:24;8.00;99.90
18073;DHT22;9161;47.348;9.648;2024-03-22T01:29:25;8.00;99.90
18073;DHT22;9161;47.348;9.648;2024-03-22T01:34:32;7.90;99.90
18073;DHT22;9161;47.348;9.648;2024-03-22T01:39:34;7.80;99.90
18073;DHT22;9161;47.348;9.648;2024-03-22T01:44:35;8.00;99.90
18073;DHT22;9161;47.348;9.648;2024-03-22T01:49:39;7.90;99.90
18073;DHT22;9161;47.348;9.648;2024-03-22T01:54:41;7.90;99.90
18073;DHT22;9161;47.348;9.648;2024-03-22T01:59:43;7.50;99.90
18073;DHT22;9161;47.348;9.648;2024-03-22T02:04:46;7.50;99.90
18073;DHT22;9161;47.348;9.648;2024-03-22T02:09:48;7.40;99.90
18073;DHT22;9161;47.348;9.648;2024-03-22T02:14:50;7.30;99.90
18073;DHT22;9161;47.348;9.648;2024-03-22T02:19:57;8.00;99.90
18073;DHT22;9161;47.348;9.648;2024-03-22T02:24:59;8.30;99.90
18073;DHT22;9161;47.348;9.648;2024-03-22T02:30:01;8.20;99.90
18073;DHT22;9161;47.348;9.648;2024-03-22T02:35:02;7.80;99.90
18073;DHT22;9161;47.348;9.648;2024-03-22T02:40:06;7.50;99.90
18073;DHT22;9161;47.348;9.648;2024-03-22T02:45:08;7.20;99.90
18073;DHT22;9161;47.348;9.648;2024-03-22T02:50:10;7.00;99.90
18073;DHT22;9161;47.348;9.648;2024-03-22T02:55:12;6.80;99.90
18073;DHT22;9161;47.348;9.648;2024-03-22T03:00:13;6.80;99.90
18073;DHT22;9161;47.348;9.648;2024-03-22T03:05:14;6.70;99.90
18073;DHT22;9161;47.348;9.648;2024-03-22T03:10:17;6.60;99.90
18073;DHT22;9161;47.348;9.648;2024-03-22T03:15:19;6.60;99.90
18073;DHT22;9161;47.348;9.648;2024-03-22T03:20:20;6.50;99.90
18073;DHT22;9161;47.348;9.648;2024-03-22T03:25:22;6.40;99.90
18073;DHT22;9161;47.348;9.648;2024-03-22T03:30:24;6.40;99.90
18073;DHT22;9161;47.348;9.648;2024-03-22T03:35:25;6.30;99.90
18073;DHT22;9161;47.348;9.648;2024-03-22T03:40:28;6.40;99.90
18073;DHT22;9161;47.348;9.648;2024-03-22T03:45:29;7.20;99.90
18073;DHT22;9161;47.348;9.648;2024-03-22T03:50:30;8.30;99.90
18073;DHT22;9161;47.348;9.648;2024-03-22T03:55:34;7.90;99.90
18073;DHT22;9161;47.348;9.648;2024-03-22T04:00:36;7.40;99.90
18073;DHT22;9161;47.348;9.648;2024-03-22T04:05:37;7.20;99.90
18073;DHT22;9161;47.348;9.648;2024-03-22T04:10:39;7.40;99.90
18073;DHT22;9161;47.348;9.648;2024-03-22T04:15:41;7.60;99.90
18073;DHT22;9161;47.348;9.648;2024-03-22T04:20:42;7.50;99.90
18073;DHT22;9161;47.348;9.648;2024-03-22T04:25:53;8.00;99.90
18073;DHT22;9161;47.348;9.648;2024-03-22T04:30:56;7.80;99.90
18073;DHT22;9161;47.348;9.648;2024-03-22T04:35:58;7.80;99.90
18073;DHT22;9161;47.348;9.648;2024-03-22T04:41:01;7.60;99.90
18073;DHT22;9161;47.348;9.648;2024-03-22T04:46:02;7.50;99.90
18073;DHT22;9161;47.348;9.648;2024-03-22T04:51:03;8.40;99.90
18073;DHT22;9161;47.348;9.648;2024-03-22T04:56:06;8.80;99.90
18073;DHT22;9161;47.348;9.648;2024-03-22T05:01:08;9.10;99.90
18073;DHT22;9161;47.348;9.648;2024-03-22T05:06:09;8.70;99.90
18073;DHT22;9161;47.348;9.648;2024-03-22T05:11:11;8.90;99.90
18073;DHT22;9161;47.348;9.648;2024-03-22T05:16:12;8.90;99.90
18073;DHT22;9161;47.348;9.648;2024-03-22T05:21:14;8.80;99.90
18073;DHT22;9161;47.348;9.648;2024-03-22T05:26:17;8.60;99.90
18073;DHT22;9161;47.348;9.648;2024-03-22T05:31:20;8.70;99.90
18073;DHT22;9161;47.348;9.648;2024-03-22T05:36:22;8.80;99.90
18073;DHT22;9161;47.348;9.648;2024-03-22T05:41:25;8.90;99.90
18073;DHT22;9161;47.348;9.648;2024-03-22T05:46:27;9.00;99.90
18073;DHT22;9161;47.348;9.648;2024-03-22T05:51:32;9.10;99.90
18073;DHT22;9161;47.348;9.648;2024-03-22T05:56:47;9.20;99.90
18073;DHT22;9161;47.348;9.648;2024-03-22T06:01:48;9.20;99.90
18073;DHT22;9161;47.348;9.648;2024-03-22T06:06:49;9.20;99.90
18073;DHT22;9161;47.348;9.648;2024-03-22T06:11:53;9.20;99.90
18073;DHT22;9161;47.348;9.648;2024-03-22T06:16:54;9.30;99.90
18073;DHT22;9161;47.348;9.648;2024-03-22T06:21:55;9.30;99.90
18073;DHT22;9161;47.348;9.648;2024-03-22T06:26:57;9.40;99.90
18073;DHT22;9161;47.348;9.648;2024-03-22T06:31:58;9.30;99.90
18073;DHT22;9161;47.348;9.648;2024-03-22T06:37:00;9.40;99.90
18073;DHT22;9161;47.348;9.648;2024-03-22T06:42:04;9.40;99.90
18073;DHT22;9161;47.348;9.648;2024-03-22T06:47:05;9.30;99.90
18073;DHT22;9161;47.348;9.648;2024-03-22T06:52:07;9.50;99.90
18073;DHT22;9161;47.348;9.648;2024-03-22T06:57:10;9.70;99.90
18073;DHT22;9161;47.348;9.648;2024-03-22T07:02:11;10.30;99.90
18073;DHT22;9161;47.348;9.648;2024-03-22T07:07:14;10.60;99.90
18073;DHT22;9161;47.348;9.648;2024-03-22T07:12:16;10.80;99.90
18073;DHT22;9161;47.348;9.648;2024-03-22T07:17:17;11.10;99.90
18073;DHT22;9161;47.348;9.648;2024-03-22T07:22:24;11.40;99.90
18073;DHT22;9161;47.348;9.648;2024-03-22T07:27:26;11.70;99.90
18073;DHT22;9161;47.348;9.648;2024-03-22T07:32:31;11.90;99.90
18073;DHT22;9161;47.348;9.648;2024-03-22T07:37:32;12.10;99.90
18073;DHT22;9161;47.348;9.648;2024-03-22T07:42:35;11.90;99.90
18073;DHT22;9161;47.348;9.648;2024-03-22T07:47:37;12.10;99.90
18073;DHT22;9161;47.348;9.648;2024-03-22T07:52:39;12.40;99.90
18073;DHT22;9161;47.348;9.648;2024-03-22T07:57:41;12.50;99.90
18073;DHT22;9161;47.348;9.648;2024-03-22T08:02:43;12.60;99.90
18073;DHT22;9161;47.348;9.648;2024-03-22T08:07:44;13.00;99.90
18073;DHT22;9161;47.348;9.648;2024-03-22T08:12:50;13.40;99.90
18073;DHT22;9161;47.348;9.648;2024-03-22T08:17:53;13.80;99.90
18073;DHT22;9161;47.348;9.648;2024-03-22T08:22:55;13.70;99.90
18073;DHT22;9161;47.348;9.648;2024-03-22T08:28:01;13.60;99.90
18073;DHT22;9161;47.348;9.648;2024-03-22T08:33:02;13.60;99.90
18073;DHT22;9161;47.348;9.648;2024-03-22T08:38:04;14.20;99.90
18073;DHT22;9161;47.348;9.648;2024-03-22T08:43:11;14.30;99.90
18073;DHT22;9161;47.348;9.648;2024-03-22T08:48:12;15.20;99.90
18073;DHT22;9161;47.348;9.648;2024-03-22T08:53:14;15.30;99.90
18073;DHT22;9161;47.348;9.648;2024-03-22T08:58:18;16.10;99.90
18073;DHT22;9161;47.348;9.648;2024-03-22T09:03:21;15.90;99.90
18073;DHT22;9161;47.348;9.648;2024-03-22T09:08:23;16.50;99.90
18073;DHT22;9161;47.348;9.648;2024-03-22T09:13:27;16.60;99.90
18073;DHT22;9161;47.348;9.648;2024-03-22T09:18:28;17.20;99.90
18073;DHT22;9161;47.348;9.648;2024-03-22T09:23:30;17.70;99.90
18073;DHT22;9161;47.348;9.648;2024-03-22T09:28:32;17.40;99.90
18073;DHT22;9161;47.348;9.648;2024-03-22T09:33:33;18.10;99.90
18073;DHT22;9161;47.348;9.648;2024-03-22T09:38:36;17.50;99.90
18073;DHT22;9161;47.348;9.648;2024-03-22T09:43:45;17.10;99.90
18073;DHT22;9161;47.348;9.648;2024-03-22T09:48:52;18.20;99.90
18073;DHT22;9161;47.348;9.648;2024-03-22T09:53:55;20.10;99.90
18073;DHT22;9161;47.348;9.648;2024-03-22T09:58:58;21.30;99.90
18073;DHT22;9161;47.348;9.648;2024-03-22T10:04:01;21.60;99.90
18073;DHT22;9161;47.348;9.648;2024-03-22T10:09:03;21.00;99.90
18073;DHT22;9161;47.348;9.648;2024-03-22T10:14:07;19.70;99.90
18073;DHT22;9161;47.348;9.648;2024-03-22T10:19:10;21.80;99.90
18073;DHT22;9161;47.348;9.648;2024-03-22T10:24:11;22.40;98.80
18073;DHT22;9161;47.348;9.648;2024-03-22T10:29:17;20.30;98.00
18073;DHT22;9161;47.348;9.648;2024-03-22T10:34:20;20.10;99.90
18073;DHT22;9161;47.348;9.648;2024-03-22T10:39:23;19.50;99.00
18073;DHT22;9161;47.348;9.648;2024-03-22T10:44:26;20.10;99.90
18073;DHT22;9161;47.348;9.648;2024-03-22T10:49:30;20.50;99.50
18073;DHT22;9161;47.348;9.648;2024-03-22T10:54:34;21.40;97.60
18073;DHT22;9161;47.348;9.648;2024-03-22T10:59:41;22.90;97.90
18073;DHT22;9161;47.348;9.648;2024-03-22T11:04:42;22.90;98.70
18073;DHT22;9161;47.348;9.648;2024-03-22T11:09:52;23.60;96.80
18073;DHT22;9161;47.348;9.648;2024-03-22T11:14:55;25.70;91.60
18073;DHT22;9161;47.348;9.648;2024-03-22T11:19:56;26.70;94.30
18073;DHT22;9161;47.348;9.648;2024-03-22T11:24:58;27.50;96.10
18073;DHT22;9161;47.348;9.648;2024-03-22T11:30:01;28.90;94.90
18073;DHT22;9161;47.348;9.648;2024-03-22T11:35:04;29.20;93.40
18073;DHT22;9161;47.348;9.648;2024-03-22T11:40:08;30.40;91.90
18073;DHT22;9161;47.348;9.648;2024-03-22T11:45:12;30.70;88.30
18073;DHT22;9161;47.348;9.648;2024-03-22T11:50:15;29.20;90.00
18073;DHT22;9161;47.348;9.648;2024-03-22T11:55:16;29.00;90.60
18073;DHT22;9161;47.348;9.648;2024-03-22T12:00:19;28.30;94.20
18073;DHT22;9161;47.348;9.648;2024-03-22T12:05:22;29.90;93.20
18073;DHT22;9161;47.348;9.648;2024-03-22T12:10:25;28.50;91.90
18073;DHT22;9161;47.348;9.648;2024-03-22T12:15:28;28.30;93.20
18073;DHT22;9161;47.348;9.648;2024-03-22T12:20:29;28.90;92.40
18073;DHT22;9161;47.348;9.648;2024-03-22T12:25:31;27.90;93.90
18073;DHT22;9161;47.348;9.648;2024-03-22T12:30:33;28.20;92.40
18073;DHT22;9161;47.348;9.648;2024-03-22T12:35:34;29.50;90.70
18073;DHT22;9161;47.348;9.648;2024-03-22T12:40:36;29.70;91.30
18073;DHT22;9161;47.348;9.648;2024-03-22T12:45:41;29.20;86.60
18073;DHT22;9161;47.348;9.648;2024-03-22T12:50:46;28.50;89.40
18073;DHT22;9161;47.348;9.648;2024-03-22T12:55:47;29.10;89.40
18073;DHT22;9161;47.348;9.648;2024-03-22T13:00:50;28.80;86.50
18073;DHT22;9161;47.348;9.648;2024-03-22T13:05:51;29.40;87.70
18073;DHT22;9161;47.348;9.648;2024-03-22T13:10:52;28.80;85.60
18073;DHT22;9161;47.348;9.648;2024-03-22T13:15:58;29.30;87.90
18073;DHT22;9161;47.348;9.648;2024-03-22T13:21:01;30.10;85.30
18073;DHT22;9161;47.348;9.648;2024-03-22T13:26:05;30.10;86.60
18073;DHT22;9161;47.348;9.648;2024-03-22T13:31:08;29.40;88.40
18073;DHT22;9161;47.348;9.648;2024-03-22T13:36:09;30.90;83.40
18073;DHT22;9161;47.348;9.648;2024-03-22T13:41:10;31.20;84.40
18073;DHT22;9161;47.348;9.648;2024-03-22T13:46:14;31.70;80.70
18073;DHT22;9161;47.348;9.648;2024-03-22T13:51:17;31.40;83.20
18073;DHT22;9161;47.348;9.648;2024-03-22T13:56:18;32.30;81.30
18073;DHT22;9161;47.348;9.648;2024-03-22T14:01:21;33.50;75.80
18073;DHT22;9161;47.348;9.648;2024-03-22T14:06:22;33.30;76.60
18073;DHT22;9161;47.348;9.648;2024-03-22T14:11:23;32.30;77.20
18073;DHT22;9161;47.348;9.648;2024-03-22T14:16:26;31.80;73.80
18073;DHT22;9161;47.348;9.648;2024-03-22T14:21:27;32.50;77.60
18073;DHT22;9161;47.348;9.648;2024-03-22T14:26:29;33.60;77.00
18073;DHT22;9161;47.348;9.648;2024-03-22T14:31:31;33.40;72.10
18073;DHT22;9161;47.348;9.648;2024-03-22T14:36:33;33.80;74.50
18073;DHT22;9161;47.348;9.648;2024-03-22T14:41:35;34.00;73.00
18073;DHT22;9161;47.348;9.648;2024-03-22T14:46:37;31.90;69.60
18073;DHT22;9161;47.348;9.648;2024-03-22T14:51:38;30.40;73.00
18073;DHT22;9161;47.348;9.648;2024-03-22T14:56:39;31.60;74.10
18073;DHT22;9161;47.348;9.648;2024-03-22T15:01:42;31.60;73.50
18073;DHT22;9161;47.348;9.648;2024-03-22T15:06:43;31.90;72.90
18073;DHT22;9161;47.348;9.648;2024-03-22T15:11:47;31.10;67.40
18073;DHT22;9161;47.348;9.648;2024-03-22T15:16:50;30.60;71.60
18073;DHT22;9161;47.348;9.648;2024-03-22T15:21:51;31.30;71.10
18073;DHT22;9161;47.348;9.648;2024-03-22T15:26:52;31.60;69.80
18073;DHT22;9161;47.348;9.648;2024-03-22T15:31:55;31.20;68.20
18073;DHT22;9161;47.348;9.648;2024-03-22T15:36:57;30.80;68.50
18073;DHT22;9161;47.348;9.648;2024-03-22T15:41:58;31.90;66.80
18073;DHT22;9161;47.348;9.648;2024-03-22T15:47:01;32.40;65.70
18073;DHT22;9161;47.348;9.648;2024-03-22T15:52:02;32.00;65.40
18073;DHT22;9161;47.348;9.648;2024-03-22T15:57:04;29.90;65.30
18073;DHT22;9161;47.348;9.648;2024-03-22T16:02:07;26.90;69.10
18073;DHT22;9161;47.348;9.648;2024-03-22T16:07:09;24.60;72.70
18073;DHT22;9161;47.348;9.648;2024-03-22T16:12:10;23.50;78.80
18073;DHT22;9161;47.348;9.648;2024-03-22T16:17:13;25.00;76.20
18073;DHT22;9161;47.348;9.648;2024-03-22T16:22:14;25.50;73.30
18073;DHT22;9161;47.348;9.648;2024-03-22T16:27:16;27.10;73.90
18073;DHT22;9161;47.348;9.648;2024-03-22T16:32:19;27.90;70.70
18073;DHT22;9161;47.348;9.648;2024-03-22T16:37:20;27.90;69.70
18073;DHT22;9161;47.348;9.648;2024-03-22T16:42:21;27.30;70.50
18073;DHT22;9161;47.348;9.648;2024-03-22T16:47:24;27.20;69.80
18073;DHT22;9161;47.348;9.648;2024-03-22T16:52:25;24.70;76.00
18073;DHT22;9161;47.348;9.648;2024-03-22T16:57:27;22.20;80.60
18073;DHT22;9161;47.348;9.648;2024-03-22T17:02:30;20.40;85.50
18073;DHT22;9161;47.348;9.648;2024-03-22T17:07:31;19.20;86.70
18073;DHT22;9161;47.348;9.648;2024-03-22T17:12:33;18.40;91.00
18073;DHT22;9161;47.348;9.648;2024-03-22T17:17:36;17.40;92.40
18073;DHT22;9161;47.348;9.648;2024-03-22T17:22:37;16.90;93.90
18073;DHT22;9161;47.348;9.648;2024-03-22T17:27:39;16.50;93.70
18073;DHT22;9161;47.348;9.648;2024-03-22T17:32:42;16.20;93.70
18073;DHT22;9161;47.348;9.648;2024-03-22T17:37:43;16.20;94.70
18073;DHT22;9161;47.348;9.648;2024-03-22T17:42:44;16.00;95.60
18073;DHT22;9161;47.348;9.648;2024-03-22T17:47:47;15.60;96.30
18073;DHT22;9161;47.348;9.648;2024-03-22T17:52:49;15.50;95.90
18073;DHT22;9161;47.348;9.648;2024-03-22T17:57:50;15.50;98.20
18073;DHT22;9161;47.348;9.648;2024-03-22T18:02:52;15.30;99.30
18073;DHT22;9161;47.348;9.648;2024-03-22T18:07:53;15.50;98.80
18073;DHT22;9161;47.348;9.648;2024-03-22T18:12:55;15.40;99.70
18073;DHT22;9161;47.348;9.648;2024-03-22T18:17:58;15.30;97.90
18073;DHT22;9161;47.348;9.648;2024-03-22T18:22:59;15.20;99.50
18073;DHT22;9161;47.348;9.648;2024-03-22T18:28:00;15.10;99.30
18073;DHT22;9161;47.348;9.648;2024-03-22T18:33:03;15.20;99.50
18073;DHT22;9161;47.348;9.648;2024-03-22T18:38:04;15.30;99.00
18073;DHT22;9161;47.348;9.648;2024-03-22T18:43:06;15.20;99.30
18073;DHT22;9161;47.348;9.648;2024-03-22T18:48:10;15.10;99.60
18073;DHT22;9161;47.348;9.648;2024-03-22T18:53:11;15.00;99.90
18073;DHT22;9161;47.348;9.648;2024-03-22T18:58:12;14.80;99.90
18073;DHT22;9161;47.348;9.648;2024-03-22T19:03:15;14.70;99.90
18073;DHT22;9161;47.348;9.648;2024-03-22T19:08:16;14.70;99.90
18073;DHT22;9161;47.348;9.648;2024-03-22T19:13:18;14.80;99.90
18073;DHT22;9161;47.348;9.648;2024-03-22T19:18:20;14.90;99.40
18073;DHT22;9161;47.348;9.648;2024-03-22T19:23:21;15.10;98.90
18073;DHT22;9161;47.348;9.648;2024-03-22T19:28:22;15.00;99.90
18073;DHT22;9161;47.348;9.648;2024-03-22T19:33:25;14.80;99.90
18073;DHT22;9161;47.348;9.648;2024-03-22T19:38:27;14.80;99.90
18073;DHT22;9161;47.348;9.648;2024-03-22T19:43:28;14.70;99.90
18073;DHT22;9161;47.348;9.648;2024-03-22T19:48:33;14.60;99.90
18073;DHT22;9161;47.348;9.648;2024-03-22T19:53:35;14.50;99.90
18073;DHT22;9161;47.348;9.648;2024-03-22T19:58:37;14.70;99.90
18073;DHT22;9161;47.348;9.648;2024-03-22T20:03:40;14.50;99.90
18073;DHT22;9161;47.348;9.648;2024-03-22T20:08:41;14.10;99.90
18073;DHT22;9161;47.348;9.648;2024-03-22T20:13:43;13.70;99.90
18073;DHT22;9161;47.348;9.648;2024-03-22T20:18:45;13.30;99.90
18073;DHT22;9161;47.348;9.648;2024-03-22T20:23:47;12.90;99.90
18073;DHT22;9161;47.348;9.648;2024-03-22T20:28:49;12.70;99.90
18073;DHT22;9161;47.348;9.648;2024-03-22T20:33:53;12.70;99.90
18073;DHT22;9161;47.348;9.648;2024-03-22T20:38:54;12.50;99.90
